createdAt,value
2019-04-25T00:01:38.743Z,102128.41
2019-04-25T00:04:12.234Z,102120.64
2019-04-25T00:06:44.966Z,102129.02
2019-04-25T00:09:21.903Z,102121.11
2019-04-25T00:11:54.088Z,102117.80
2019-04-25T00:14:25.940Z,102118.26
2019-04-25T00:16:57.698Z,102118.95
2019-04-25T00:19:29.866Z,102124.55
2019-04-25T00:22:09.312Z,102125.52
2019-04-25T00:24:54.592Z,102119.75
2019-04-25T00:27:27.441Z,102125.00
2019-04-25T00:30:01.689Z,102127.53
2019-04-25T00:32:34.268Z,102125.53
2019-04-25T00:35:06.700Z,102131.52
2019-04-25T00:37:38.808Z,102132.73
2019-04-25T00:40:11.858Z,102138.53
2019-04-25T00:42:44.904Z,102140.02
2019-04-25T00:45:16.519Z,102138.83
2019-04-25T00:47:48.293Z,102132.02
2019-04-25T00:50:19.854Z,102134.66
2019-04-25T00:52:53.329Z,102130.00
2019-04-25T00:55:28.587Z,102131.04
2019-04-25T00:58:01.351Z,102129.64
2019-04-25T01:00:35.699Z,102132.02
2019-04-25T01:03:09.109Z,102126.34
2019-04-25T01:05:42.492Z,102127.59
2019-04-25T01:08:14.474Z,102134.55
2019-04-25T01:10:46.424Z,102132.67
2019-04-25T01:13:18.592Z,102125.67
2019-04-25T01:15:52.888Z,102132.16
2019-04-25T01:18:25.291Z,102123.88
2019-04-25T01:20:57.319Z,102126.95
2019-04-25T01:23:29.708Z,102122.70
2019-04-25T01:26:01.486Z,102123.81
2019-04-25T01:28:33.583Z,102122.11
2019-04-25T01:31:08.307Z,102126.58
2019-04-25T01:33:40.351Z,102126.16
2019-04-25T01:36:13.957Z,102120.02
2019-04-25T01:38:56.573Z,102117.64
2019-04-25T01:41:35.273Z,102119.21
2019-04-25T01:44:14.474Z,102127.28
2019-04-25T01:46:46.492Z,102118.82
2019-04-25T01:49:18.568Z,102113.28
2019-04-25T01:51:50.409Z,102118.52
2019-04-25T01:54:23.797Z,102116.62
2019-04-25T01:56:56.223Z,102114.83
2019-04-25T01:59:28.051Z,102117.05
2019-04-25T02:02:00.164Z,102115.03
2019-04-25T02:04:31.994Z,102109.48
2019-04-25T02:07:05.668Z,102106.71
2019-04-25T02:09:37.326Z,102107.38
2019-04-25T02:12:15.534Z,102114.02
2019-04-25T02:14:47.510Z,102109.08
2019-04-25T02:17:19.975Z,102114.91
2019-04-25T02:19:52.177Z,102112.57
2019-04-25T02:22:24.416Z,102124.48
2019-04-25T02:24:57.112Z,102120.27
2019-04-25T02:27:29.540Z,102119.38
2019-04-25T02:30:01.493Z,102119.91
2019-04-25T02:32:37.172Z,102123.09
2019-04-25T02:35:10.040Z,102122.81
2019-04-25T02:37:41.849Z,102126.53
2019-04-25T02:40:15.756Z,102122.72
2019-04-25T02:42:47.412Z,102126.44
2019-04-25T02:45:24.547Z,102121.28
2019-04-25T02:48:01.520Z,102125.00
2019-04-25T02:50:35.372Z,102123.35
2019-04-25T02:53:13.990Z,102123.35
2019-04-25T02:55:45.468Z,102119.33
2019-04-25T02:58:17.117Z,102125.76
2019-04-25T03:00:57.392Z,102128.94
2019-04-25T03:03:24.457Z,102133.81
2019-04-25T03:05:57.357Z,102125.53
2019-04-25T03:08:29.162Z,102129.34
2019-04-25T03:11:01.601Z,102133.38
2019-04-25T03:13:34.317Z,102137.09
2019-04-25T03:16:09.133Z,102132.16
2019-04-25T03:18:44.501Z,102132.88
2019-04-25T03:21:17.879Z,102134.44
2019-04-25T03:23:50.354Z,102129.07
2019-04-25T03:26:23.404Z,102135.06
2019-04-25T03:28:55.003Z,102134.53
2019-04-25T03:31:27.433Z,102135.34
2019-04-25T03:33:59.185Z,102139.46
2019-04-25T03:36:30.995Z,102140.09
2019-04-25T03:39:03.972Z,102140.45
2019-04-25T03:41:36.630Z,102135.48
2019-04-25T03:44:08.533Z,102137.28
2019-04-25T03:46:40.408Z,102140.55
2019-04-25T03:49:13.902Z,102142.00
2019-04-25T03:51:47.046Z,102142.94
2019-04-25T03:54:18.734Z,102137.68
2019-04-25T03:56:54.390Z,102141.66
2019-04-25T03:59:25.505Z,102141.23
2019-04-25T04:01:57.318Z,102143.52
2019-04-25T04:04:29.964Z,102146.22
2019-04-25T04:07:01.446Z,102147.84
2019-04-25T04:09:33.819Z,102141.44
2019-04-25T04:12:06.372Z,102146.06
2019-04-25T04:14:38.568Z,102151.29
2019-04-25T04:17:16.026Z,102152.91
2019-04-25T04:20:01.298Z,102156.16
2019-04-25T04:22:53.381Z,102154.88
2019-04-25T04:25:25.325Z,102158.20
2019-04-25T04:27:57.578Z,102159.64
2019-04-25T04:30:29.460Z,102153.17
2019-04-25T04:33:01.095Z,102153.18
2019-04-25T04:35:33.626Z,102152.37
2019-04-25T04:38:05.646Z,102132.17
2019-04-25T04:40:37.637Z,102153.52
2019-04-25T04:43:09.627Z,102146.81
2019-04-25T04:45:43.281Z,102148.23
2019-04-25T04:48:15.563Z,102151.49
2019-04-25T04:50:47.436Z,102143.17
2019-04-25T04:53:19.593Z,102150.55
2019-04-25T04:55:51.261Z,102148.14
2019-04-25T04:58:24.972Z,102154.42
2019-04-25T05:00:56.728Z,102139.55
2019-04-25T05:03:39.130Z,102151.20
2019-04-25T05:06:28.211Z,102139.59
2019-04-25T05:09:01.586Z,102140.39
2019-04-25T05:11:34.873Z,102145.55
2019-04-25T05:14:06.759Z,102151.77
2019-04-25T05:16:38.694Z,102148.77
2019-04-25T05:19:11.533Z,102149.81
2019-04-25T05:21:45.604Z,102152.80
2019-04-25T05:24:17.574Z,102151.46
2019-04-25T05:26:49.552Z,102144.91
2019-04-25T05:29:23.396Z,102146.45
2019-04-25T05:31:54.900Z,102142.33
2019-04-25T05:34:26.786Z,102142.78
2019-04-25T05:36:58.925Z,102133.70
2019-04-25T05:39:30.773Z,102132.75
2019-04-25T05:42:04.613Z,102142.08
2019-04-25T05:44:37.684Z,102145.44
2019-04-25T05:47:09.620Z,102139.80
2019-04-25T05:49:41.652Z,102141.17
2019-04-25T05:52:14.004Z,102133.62
2019-04-25T05:54:45.749Z,102133.53
2019-04-25T05:57:18.094Z,102131.48
2019-04-25T05:59:49.775Z,102134.30
2019-04-25T06:02:21.646Z,102129.06
2019-04-25T06:04:53.615Z,102123.03
2019-04-25T06:07:26.672Z,102126.27
2019-04-25T06:10:17.178Z,102131.78
2019-04-25T06:13:07.603Z,102127.65
2019-04-25T06:15:39.558Z,102130.67
2019-04-25T06:18:14.055Z,102120.72
2019-04-25T06:20:45.744Z,102125.95
2019-04-25T06:23:19.236Z,102125.34
2019-04-25T06:25:51.410Z,102127.91
2019-04-25T06:28:25.014Z,102122.51
2019-04-25T06:30:57.907Z,102116.05
2019-04-25T06:33:30.099Z,102115.55
2019-04-25T06:36:04.037Z,102117.47
2019-04-25T06:38:35.543Z,102110.94
2019-04-25T06:41:07.613Z,102118.89
2019-04-25T06:43:40.883Z,102115.38
2019-04-25T06:46:31.753Z,102108.83
2019-04-25T06:49:14.412Z,102111.61
2019-04-25T06:51:50.992Z,102114.33
2019-04-25T06:54:25.379Z,102112.17
2019-04-25T06:56:56.259Z,102110.33
2019-04-25T06:59:30.275Z,102112.08
2019-04-25T07:02:01.698Z,102103.66
2019-04-25T07:04:34.645Z,102104.12
2019-04-25T07:07:12.445Z,102102.91
2019-04-25T07:09:40.303Z,102106.14
2019-04-25T07:12:13.457Z,102096.41
2019-04-25T07:14:45.221Z,102096.58
2019-04-25T07:17:17.016Z,102095.92
2019-04-25T07:19:49.047Z,102096.81
2019-04-25T07:22:21.212Z,102095.38
2019-04-25T07:24:53.758Z,102095.14
2019-04-25T07:27:44.788Z,102093.50
2019-04-25T07:30:31.878Z,102097.21
2019-04-25T07:32:57.939Z,102090.61
2019-04-25T07:35:30.002Z,102097.48
2019-04-25T07:38:01.670Z,102102.45
2019-04-25T07:40:35.220Z,102096.55
2019-04-25T07:43:07.734Z,102094.55
2019-04-25T07:45:40.034Z,102098.34
2019-04-25T07:48:11.681Z,102093.75
2019-04-25T07:50:43.911Z,102090.21
2019-04-25T07:53:16.745Z,102093.53
2019-04-25T07:55:48.911Z,102089.45
2019-04-25T07:58:20.446Z,102090.59
2019-04-25T08:00:53.945Z,102090.97
2019-04-25T08:03:25.618Z,102089.56
2019-04-25T08:05:57.382Z,102081.52
2019-04-25T08:08:29.760Z,102089.03
2019-04-25T08:11:05.209Z,102080.93
2019-04-25T08:13:55.496Z,102082.84
2019-04-25T08:16:30.154Z,102079.92
2019-04-25T08:19:03.996Z,102075.68
2019-04-25T08:21:36.595Z,102074.00
2019-04-25T08:24:08.581Z,102069.60
2019-04-25T08:26:40.341Z,102073.31
2019-04-25T08:29:13.301Z,102070.58
2019-04-25T08:31:45.354Z,102066.27
2019-04-25T08:34:17.037Z,102059.86
2019-04-25T08:36:49.120Z,102067.39
2019-04-25T08:39:20.887Z,102063.06
2019-04-25T08:41:53.914Z,102056.17
2019-04-25T08:44:26.140Z,102051.94
2019-04-25T08:46:58.008Z,102053.23
2019-04-25T08:49:34.886Z,102048.55
2019-04-25T08:52:07.052Z,102043.95
2019-04-25T08:54:44.339Z,102047.20
2019-04-25T08:57:15.479Z,102044.89
2019-04-25T08:59:52.486Z,102043.31
2019-04-25T09:02:24.137Z,102035.71
2019-04-25T09:05:15.956Z,102035.62
2019-04-25T09:07:47.819Z,102026.22
2019-04-25T09:10:19.687Z,102029.02
2019-04-25T09:12:51.335Z,102026.84
2019-04-25T09:15:24.174Z,102021.11
2019-04-25T09:17:56.094Z,102021.56
2019-04-25T09:20:27.951Z,102017.91
2019-04-25T09:22:59.915Z,102018.94
2019-04-25T09:25:33.507Z,102012.03
2019-04-25T09:28:05.482Z,102018.70
2019-04-25T09:30:38.273Z,102015.83
2019-04-25T09:33:10.005Z,102009.37
2019-04-25T09:35:41.688Z,102006.75
2019-04-25T09:38:13.538Z,102004.92
2019-04-25T09:40:46.339Z,102004.69
2019-04-25T09:43:18.488Z,102002.84
2019-04-25T09:46:07.338Z,102001.14
2019-04-25T09:48:41.166Z,101988.12
2019-04-25T09:51:14.649Z,101988.87
2019-04-25T09:53:51.043Z,101983.22
2019-04-25T09:56:24.630Z,101987.25
2019-04-25T09:59:00.896Z,101987.37
2019-04-25T10:01:33.870Z,101987.49
2019-04-25T10:04:05.847Z,101984.38
2019-04-25T10:06:37.505Z,101975.05
2019-04-25T10:09:10.627Z,101977.82
2019-04-25T10:11:43.958Z,101971.12
2019-04-25T10:14:24.647Z,101980.33
2019-04-25T10:16:56.320Z,101967.18
2019-04-25T10:19:28.238Z,101961.89
2019-04-25T10:22:00.643Z,101965.92
2019-04-25T10:24:32.317Z,101963.36
2019-04-25T10:27:04.592Z,101965.74
2019-04-25T10:29:44.890Z,101961.16
2019-04-25T10:32:13.271Z,101962.42
2019-04-25T10:34:46.193Z,101956.30
2019-04-25T10:37:17.977Z,101956.69
2019-04-25T10:39:50.152Z,101958.54
2019-04-25T10:42:21.885Z,101955.05
2019-04-25T10:44:54.463Z,101948.45
2019-04-25T10:47:27.168Z,101951.94
2019-04-25T10:49:59.372Z,101944.81
2019-04-25T10:52:31.400Z,101941.06
2019-04-25T10:55:04.172Z,101947.72
2019-04-25T10:57:36.044Z,101940.62
2019-04-25T11:00:13.730Z,101940.38
2019-04-25T11:02:46.583Z,101945.19
2019-04-25T11:05:19.600Z,101945.50
2019-04-25T11:07:55.586Z,101935.14
2019-04-25T11:10:26.538Z,101939.27
2019-04-25T11:12:58.177Z,101937.27
2019-04-25T11:15:30.379Z,101931.24
2019-04-25T11:18:02.101Z,101934.78
2019-04-25T11:20:34.305Z,101926.28
2019-04-25T11:23:05.922Z,101923.91
2019-04-25T11:25:37.880Z,101924.23
2019-04-25T11:28:11.475Z,101926.58
2019-04-25T11:30:46.666Z,101927.10
2019-04-25T11:33:18.824Z,101920.27
2019-04-25T11:35:50.652Z,101915.88
2019-04-25T11:38:27.036Z,101917.09
2019-04-25T11:41:03.952Z,101911.80
2019-04-25T11:43:35.779Z,101909.91
2019-04-25T11:46:07.744Z,101908.59
2019-04-25T11:48:39.899Z,101903.94
2019-04-25T11:51:13.822Z,101905.75
2019-04-25T11:53:46.012Z,101895.78
2019-04-25T11:56:17.746Z,101890.97
2019-04-25T11:58:50.652Z,101893.09
2019-04-25T12:01:24.179Z,101887.83
2019-04-25T12:03:57.438Z,101886.30
2019-04-25T12:06:29.501Z,101882.88
2019-04-25T12:09:01.461Z,101870.45
2019-04-25T12:11:35.296Z,101883.67
2019-04-25T12:14:07.132Z,101872.06
2019-04-25T12:16:39.770Z,101870.30
2019-04-25T12:19:11.759Z,101867.23
2019-04-25T12:21:44.695Z,101869.94
2019-04-25T12:24:17.744Z,101868.73
2019-04-25T12:26:49.291Z,101863.67
2019-04-25T12:29:21.478Z,101869.20
2019-04-25T12:31:54.834Z,101867.33
2019-04-25T12:34:26.746Z,101859.29
2019-04-25T12:36:58.509Z,101859.97
2019-04-25T12:39:30.770Z,101862.41
2019-04-25T12:42:04.164Z,101860.49
2019-04-25T12:44:54.821Z,101852.91
2019-04-25T12:47:28.372Z,101854.91
2019-04-25T12:50:00.038Z,101851.59
2019-04-25T12:52:33.306Z,101856.22
2019-04-25T12:55:06.787Z,101848.33
2019-04-25T12:57:38.494Z,101844.39
2019-04-25T13:00:10.879Z,101845.91
2019-04-25T13:02:44.580Z,101840.73
2019-04-25T13:05:16.228Z,101843.52
2019-04-25T13:07:47.870Z,101839.43
2019-04-25T13:10:19.953Z,101837.52
2019-04-25T13:12:55.232Z,101834.95
2019-04-25T13:15:27.061Z,101839.92
2019-04-25T13:17:59.224Z,101824.67
2019-04-25T13:20:31.192Z,101830.22
2019-04-25T13:23:04.492Z,101828.42
2019-04-25T13:25:36.553Z,101818.41
2019-04-25T13:28:26.112Z,101809.97
2019-04-25T13:31:04.000Z,101810.94
2019-04-25T13:33:37.537Z,101810.82
2019-04-25T13:36:16.764Z,101814.98
2019-04-25T13:38:48.712Z,101813.94
2019-04-25T13:41:20.471Z,101804.60
2019-04-25T13:43:54.669Z,101806.29
2019-04-25T13:46:27.593Z,101809.40
2019-04-25T13:48:59.660Z,101801.00
2019-04-25T13:51:33.215Z,101798.52
2019-04-25T13:54:05.317Z,101796.25
2019-04-25T13:56:40.440Z,101788.73
2019-04-25T13:59:10.798Z,101786.01
2019-04-25T14:01:44.090Z,101791.73
2019-04-25T14:04:16.082Z,101792.11
2019-04-25T14:06:47.508Z,101790.43
2019-04-25T14:09:21.367Z,101784.36
2019-04-25T14:11:53.912Z,101782.95
2019-04-25T14:14:26.849Z,101779.84
2019-04-25T14:17:17.586Z,101777.33
2019-04-25T14:19:58.154Z,101778.16
2019-04-25T14:22:30.393Z,101775.38
2019-04-25T14:25:03.999Z,101774.31
2019-04-25T14:27:35.187Z,101773.17
2019-04-25T14:30:08.472Z,101768.78
2019-04-25T14:32:39.633Z,101766.05
2019-04-25T14:35:11.466Z,101761.55
2019-04-25T14:37:44.025Z,101764.22
2019-04-25T14:40:16.010Z,101771.30
2019-04-25T14:42:47.888Z,101765.84
2019-04-25T14:45:21.527Z,101760.81
2019-04-25T14:47:53.987Z,101761.05
2019-04-25T14:50:26.034Z,101754.09
2019-04-25T14:52:58.087Z,101754.52
2019-04-25T14:55:37.530Z,101743.66
2019-04-25T14:58:14.221Z,101747.73
2019-04-25T15:00:48.038Z,101745.70
2019-04-25T15:03:19.674Z,101741.41
2019-04-25T15:05:51.787Z,101738.91
2019-04-25T15:08:24.011Z,101738.31
2019-04-25T15:10:56.609Z,101732.63
2019-04-25T15:13:28.292Z,101736.78
2019-04-25T15:16:00.207Z,101736.88
2019-04-25T15:18:40.577Z,101732.95
2019-04-25T15:21:07.129Z,101728.42
2019-04-25T15:23:38.940Z,101726.86
2019-04-25T15:26:10.939Z,101731.33
2019-04-25T15:28:44.505Z,101725.13
2019-04-25T15:31:16.299Z,101717.02
2019-04-25T15:33:48.468Z,101721.31
2019-04-25T15:36:40.316Z,101719.22
2019-04-25T15:39:31.038Z,101724.39
2019-04-25T15:42:06.387Z,101720.19
2019-04-25T15:44:57.664Z,101722.53
2019-04-25T15:47:31.870Z,101722.63
2019-04-25T15:50:04.352Z,101713.92
2019-04-25T15:52:36.478Z,101720.20
2019-04-25T15:55:08.585Z,101717.16
2019-04-25T15:57:40.822Z,101714.59
2019-04-25T16:00:17.668Z,101716.39
2019-04-25T16:02:49.908Z,101720.42
2019-04-25T16:05:21.583Z,101715.77
2019-04-25T16:07:53.670Z,101707.89
2019-04-25T16:10:25.737Z,101709.76
2019-04-25T16:12:57.683Z,101703.43
2019-04-25T16:15:29.236Z,101708.22
2019-04-25T16:18:01.929Z,101716.02
2019-04-25T16:20:35.738Z,101715.66
2019-04-25T16:23:08.507Z,101716.36
2019-04-25T16:25:41.223Z,101712.22
2019-04-25T16:28:13.270Z,101711.34
2019-04-25T16:30:44.942Z,101708.89
2019-04-25T16:33:16.902Z,101710.66
2019-04-25T16:35:48.756Z,101712.42
2019-04-25T16:38:20.807Z,101711.72
2019-04-25T16:40:52.672Z,101713.06
2019-04-25T16:43:25.734Z,101715.75
2019-04-25T16:45:57.836Z,101720.03
2019-04-25T16:48:29.973Z,101715.53
2019-04-25T16:51:01.878Z,101713.39
2019-04-25T16:53:33.736Z,101715.02
2019-04-25T16:56:05.700Z,101715.86
2019-04-25T16:58:38.601Z,101724.77
2019-04-25T17:01:12.031Z,101732.06
2019-04-25T17:03:44.638Z,101739.06
2019-04-25T17:06:16.632Z,101745.04
2019-04-25T17:08:48.582Z,101746.63
2019-04-25T17:11:21.175Z,101747.91
2019-04-25T17:13:54.768Z,101744.76
2019-04-25T17:16:34.796Z,101751.06
2019-04-25T17:19:08.139Z,101751.96
2019-04-25T17:21:39.999Z,101754.02
2019-04-25T17:24:11.651Z,101754.45
2019-04-25T17:26:43.820Z,101755.03
2019-04-25T17:29:17.525Z,101763.59
2019-04-25T17:32:00.327Z,101767.01
2019-04-25T17:34:43.175Z,101761.33
2019-04-25T17:37:16.442Z,101768.02
2019-04-25T17:40:02.243Z,101769.63
2019-04-25T17:42:35.527Z,101771.22
2019-04-25T17:45:09.856Z,101774.19
2019-04-25T17:47:52.331Z,101777.09
2019-04-25T17:50:15.837Z,101776.92
2019-04-25T17:52:47.491Z,101774.05
2019-04-25T17:55:19.560Z,101780.08
2019-04-25T17:57:51.427Z,101780.70
2019-04-25T18:00:25.356Z,101775.97
2019-04-25T18:02:58.943Z,101774.77
2019-04-25T18:05:30.982Z,101784.52
2019-04-25T18:08:03.050Z,101779.52
2019-04-25T18:10:35.600Z,101778.87
2019-04-25T18:13:09.389Z,101771.44
2019-04-25T18:15:45.941Z,101779.80
2019-04-25T18:18:19.417Z,101777.58
2019-04-25T18:20:51.163Z,101779.17
2019-04-25T18:23:24.677Z,101779.59
2019-04-25T18:26:13.521Z,101785.70
2019-04-25T18:28:49.919Z,101780.13
2019-04-25T18:31:24.269Z,101790.61
2019-04-25T18:33:58.689Z,101790.95
2019-04-25T18:36:41.440Z,101784.75
2019-04-25T18:39:21.309Z,101793.28
2019-04-25T18:41:54.932Z,101785.73
2019-04-25T18:44:27.081Z,101784.15
2019-04-25T18:46:59.068Z,101783.88
2019-04-25T18:49:31.122Z,101784.78
2019-04-25T18:52:04.540Z,101787.80
2019-04-25T18:54:38.855Z,101780.70
2019-04-25T18:57:12.231Z,101792.39
2019-04-25T19:00:01.110Z,101783.95
2019-04-25T19:02:39.506Z,101780.42
2019-04-25T19:05:22.766Z,101776.92
2019-04-25T19:07:54.623Z,101779.67
2019-04-25T19:10:26.584Z,101776.45
2019-04-25T19:13:11.800Z,101775.18
2019-04-25T19:15:31.826Z,101770.89
2019-04-25T19:18:03.704Z,101771.20
2019-04-25T19:20:35.672Z,101770.17
2019-04-25T19:23:07.511Z,101768.85
2019-04-25T19:25:40.251Z,101772.44
2019-04-25T19:28:12.072Z,101770.89
2019-04-25T19:30:45.067Z,101772.27
2019-04-25T19:33:17.283Z,101775.30
2019-04-25T19:35:48.991Z,101770.75
2019-04-25T19:38:21.153Z,101774.31
2019-04-25T19:40:54.543Z,101768.11
2019-04-25T19:43:41.008Z,101771.99
2019-04-25T19:46:12.801Z,101767.12
2019-04-25T19:48:44.898Z,101763.94
2019-04-25T19:51:16.636Z,101767.02
2019-04-25T19:53:49.182Z,101764.61
2019-04-25T19:56:20.967Z,101757.89
2019-04-25T19:58:52.836Z,101758.47
2019-04-25T20:01:25.629Z,101757.97
2019-04-25T20:04:08.249Z,101756.13
2019-04-25T20:06:42.256Z,101761.84
2019-04-25T20:09:34.808Z,101759.41
2019-04-25T20:12:06.985Z,101759.72
2019-04-25T20:14:38.933Z,101761.63
2019-04-25T20:17:11.109Z,101759.98
2019-04-25T20:19:43.444Z,101758.33
2019-04-25T20:22:16.985Z,101756.71
2019-04-25T20:24:48.944Z,101757.53
2019-04-25T20:27:20.602Z,101752.64
2019-04-25T20:29:52.673Z,101756.17
2019-04-25T20:32:24.836Z,101758.58
2019-04-25T20:34:56.805Z,101752.89
2019-04-25T20:37:28.448Z,101761.02
2019-04-25T20:40:00.001Z,101763.44
2019-04-25T20:42:31.988Z,101760.70
2019-04-25T20:45:06.611Z,101763.38
2019-04-25T20:47:38.480Z,101761.18
2019-04-25T20:50:11.752Z,101760.08
2019-04-25T20:52:43.514Z,101763.83
2019-04-25T20:55:15.686Z,101765.70
2019-04-25T20:57:48.410Z,101768.41
2019-04-25T21:00:40.037Z,101768.91
2019-04-25T21:03:12.376Z,101776.77
2019-04-25T21:05:44.973Z,101782.17
2019-04-25T21:08:17.651Z,101779.44
2019-04-25T21:10:50.587Z,101772.40
2019-04-25T21:13:24.248Z,101778.31
2019-04-25T21:16:00.797Z,101780.47
2019-04-25T21:18:37.370Z,101780.43
2019-04-25T21:21:09.135Z,101775.00
2019-04-25T21:23:41.325Z,101786.63
2019-04-25T21:26:13.071Z,101786.29
2019-04-25T21:28:45.040Z,101781.38
2019-04-25T21:31:52.956Z,101781.62
2019-04-25T21:34:30.918Z,101778.90
2019-04-25T21:37:02.404Z,101780.98
2019-04-25T21:39:37.140Z,101780.42
2019-04-25T21:42:12.177Z,101777.93
2019-04-25T21:44:44.181Z,101784.65
2019-04-25T21:47:16.105Z,101784.58
2019-04-25T21:49:47.966Z,101777.99
2019-04-25T21:52:19.911Z,101781.45
2019-04-25T21:54:51.781Z,101774.89
2019-04-25T21:57:24.785Z,101778.41
2019-04-25T22:00:03.138Z,101778.38
2019-04-25T22:02:30.746Z,101777.55
2019-04-25T22:05:02.844Z,101777.52
2019-04-25T22:07:35.511Z,101777.19
2019-04-25T22:10:09.612Z,101776.07
2019-04-25T22:12:41.279Z,101777.68
2019-04-25T22:15:13.555Z,101783.63
2019-04-25T22:17:45.701Z,101784.47
2019-04-25T22:20:17.582Z,101779.90
2019-04-25T22:22:49.654Z,101776.97
2019-04-25T22:25:21.717Z,101773.23
2019-04-25T22:27:54.087Z,101775.67
2019-04-25T22:30:25.849Z,101775.67
2019-04-25T22:33:16.148Z,101772.67
2019-04-25T22:35:49.375Z,101777.25
2019-04-25T22:38:21.460Z,101779.38
2019-04-25T22:40:53.602Z,101773.69
2019-04-25T22:43:25.778Z,101767.45
2019-04-25T22:45:58.231Z,101773.63
2019-04-25T22:48:48.852Z,101770.38
2019-04-25T22:51:20.690Z,101769.80
2019-04-25T22:53:52.858Z,101762.20
2019-04-25T22:56:24.570Z,101765.17
2019-04-25T22:58:56.681Z,101771.34
2019-04-25T23:01:32.873Z,101768.61
2019-04-25T23:04:06.455Z,101766.97
2019-04-25T23:06:40.266Z,101773.44
2019-04-25T23:09:12.385Z,101765.04
2019-04-25T23:11:45.400Z,101764.72
2019-04-25T23:14:17.405Z,101763.88
2019-04-25T23:16:49.656Z,101768.70
2019-04-25T23:19:21.295Z,101763.01
2019-04-25T23:21:53.365Z,101758.09
2019-04-25T23:24:27.678Z,101762.36
2019-04-25T23:27:14.336Z,101760.72
2019-04-25T23:29:46.244Z,101757.69
2019-04-25T23:32:18.327Z,101759.55
2019-04-25T23:34:50.296Z,101756.27
2019-04-25T23:37:22.055Z,101759.45
2019-04-25T23:39:54.226Z,101756.16
2019-04-25T23:42:25.988Z,101750.21
2019-04-25T23:44:58.077Z,101758.05
2019-04-25T23:47:29.748Z,101761.56
2019-04-25T23:50:02.169Z,101754.00
2019-04-25T23:52:34.363Z,101754.77
2019-04-25T23:55:06.764Z,101751.52
2019-04-25T23:57:39.723Z,101756.34
